Time;durP1;ratioP1;P1;durP2;ratioP2;P2;SDS_P1;SDS_P2;PMS_P1;PMS_P2;Temp;Humidity;BMP_temperature;BMP_pressure;BME280_temperature;BME280_humidity;BME280_pressure;Samples;Min_cycle;Max_cycle;Signal;HPM_P1;HPM_P2
2022/10/03 00:01:37;;;;;;;10.95;3.80;;;;;;;12.76;94.28;102441.84;5030565;28;20045;-53
2022/10/03 00:04:29;;;;;;;16.13;4.55;;;;;;;12.74;94.55;102434.94;5024739;28;20381;-56
2022/10/03 00:07:41;;;;;;;9.98;3.78;;;;;;;12.73;94.74;102438.75;5031711;28;20041;-55
2022/10/03 00:10:33;;;;;;;12.20;3.72;;;;;;;12.73;94.69;102438.75;5018636;28;20527;-55
2022/10/03 00:13:09;;;;;;;12.85;3.83;;;;;;;12.74;94.67;102452.19;5045065;28;20057;-53
2022/10/03 00:16:04;;;;;;;12.20;3.92;;;;;;;12.72;93.84;102448.03;5037421;28;20045;-54
2022/10/03 00:19:03;;;;;;;11.63;3.70;;;;;;;12.69;94.36;102449.34;5036031;28;20057;-54
2022/10/03 00:21:43;;;;;;;11.25;3.55;;;;;;;12.67;94.33;102453.41;5043235;28;20033;-54
2022/10/03 00:24:34;;;;;;;11.82;3.35;;;;;;;12.66;94.95;102447.09;5051930;28;20041;-53
2022/10/03 00:27:24;;;;;;;13.73;3.78;;;;;;;12.67;94.88;102446.00;5035474;28;20049;-56
2022/10/03 00:30:03;;;;;;;12.80;3.58;;;;;;;12.67;94.72;102447.94;5035465;28;20053;-53
2022/10/03 00:32:57;;;;;;;14.07;4.00;;;;;;;12.65;94.37;102461.00;5033011;28;20089;-53
2022/10/03 00:35:34;;;;;;;14.18;3.72;;;;;;;12.61;94.34;102463.41;5029745;28;20107;-54
2022/10/03 00:38:22;;;;;;;10.95;3.47;;;;;;;12.56;93.49;102466.03;5025973;28;20076;-55
2022/10/03 00:41:18;;;;;;;11.60;3.55;;;;;;;12.45;94.48;102458.69;5030386;28;20045;-55
2022/10/03 00:44:20;;;;;;;10.55;3.47;;;;;;;12.40;94.84;102467.59;5034475;28;20404;-52
2022/10/03 00:46:47;;;;;;;11.50;3.58;;;;;;;12.40;95.21;102469.50;5027574;28;20391;-52
2022/10/03 00:49:37;;;;;;;12.50;3.75;;;;;;;12.42;95.51;102470.09;5028302;28;20042;-53
2022/10/03 00:52:38;;;;;;;13.70;3.60;;;;;;;12.45;94.90;102472.34;5032057;28;20038;-53
2022/10/03 00:55:34;;;;;;;16.25;3.95;;;;;;;12.48;95.58;102469.13;5028080;28;20038;-57
2022/10/03 00:58:30;;;;;;;12.52;3.55;;;;;;;12.44;94.02;102478.91;5027589;28;20121;-54
2022/10/03 01:01:22;;;;;;;10.40;3.75;;;;;;;12.33;95.02;102481.38;5035020;28;20045;-53
2022/10/03 01:03:52;;;;;;;13.57;4.13;;;;;;;12.29;94.55;102476.63;5035524;28;20042;-53
2022/10/03 01:06:29;;;;;;;14.40;3.45;;;;;;;12.28;95.12;102481.28;5024670;28;20049;-52
2022/10/03 01:09:23;;;;;;;14.02;4.15;;;;;;;12.27;95.37;102485.09;5030293;28;20160;-54
2022/10/03 01:12:06;;;;;;;13.15;4.00;;;;;;;12.29;95.81;102482.94;5030968;28;20061;-54
2022/10/03 01:14:40;;;;;;;12.80;3.70;;;;;;;12.29;96.11;102487.56;5034371;28;20049;-52
2022/10/03 01:17:26;;;;;;;14.35;4.00;;;;;;;12.28;95.64;102486.75;5032219;28;20056;-53
2022/10/03 01:20:14;;;;;;;16.17;4.35;;;;;;;12.27;95.88;102496.03;5024919;28;20484;-54
2022/10/03 01:22:45;;;;;;;14.30;3.80;;;;;;;12.28;95.98;102496.84;5018430;28;20061;-52
2022/10/03 01:25:30;;;;;;;12.77;3.78;;;;;;;12.28;96.21;102511.34;5024201;28;20053;-53
2022/10/03 01:31:19;;;;;;;12.50;4.10;;;;;;;12.24;96.03;102504.72;5031736;28;20041;-54
2022/10/03 01:33:59;;;;;;;13.23;4.20;;;;;;;12.22;95.99;102509.56;5017167;28;20058;-53
2022/10/03 01:36:36;;;;;;;11.65;3.70;;;;;;;12.20;95.80;102503.50;5029947;28;20484;-52
2022/10/03 01:39:30;;;;;;;9.20;3.80;;;;;;;12.17;95.91;102512.19;5033240;28;20095;-53
2022/10/03 01:42:07;;;;;;;13.23;4.22;;;;;;;12.14;96.01;102512.63;5038632;28;20580;-51
2022/10/03 01:45:11;;;;;;;10.68;3.92;;;;;;;12.14;95.93;102512.63;5029934;28;20050;-52
2022/10/03 01:47:50;;;;;;;12.60;4.20;;;;;;;12.16;96.30;102505.03;5032611;28;20041;-52
2022/10/03 01:50:35;;;;;;;13.93;4.05;;;;;;;12.17;95.84;102500.41;5033438;28;20115;-55
2022/10/03 01:53:12;;;;;;;12.77;3.80;;;;;;;12.20;95.71;102505.41;5032902;28;20095;-56
2022/10/03 01:56:03;;;;;;;16.00;4.07;;;;;;;12.20;95.80;102500.78;5031884;28;20111;-55
2022/10/03 01:58:51;;;;;;;11.90;3.80;;;;;;;12.19;95.22;102499.09;5021917;28;20044;-51
2022/10/03 02:01:37;;;;;;;12.70;4.22;;;;;;;12.18;95.95;102502.91;5019483;28;20045;-55
2022/10/03 02:04:26;;;;;;;12.75;4.40;;;;;;;12.18;95.09;102513.84;5049787;28;20029;-54
2022/10/03 02:07:31;;;;;;;12.77;4.47;;;;;;;12.18;95.17;102508.38;5034206;28;20399;-55
2022/10/03 02:10:01;;;;;;;11.93;4.30;;;;;;;12.16;95.26;102505.03;5031162;28;20045;-53
2022/10/03 02:13:03;;;;;;;11.13;3.97;;;;;;;12.15;95.24;102514.31;5027463;28;20496;-55
2022/10/03 02:16:10;;;;;;;11.10;3.58;;;;;;;12.15;95.09;102512.41;5016373;28;20038;-53
2022/10/03 02:18:46;;;;;;;14.88;4.55;;;;;;;12.13;95.28;102514.53;5010904;28;20570;-52
2022/10/03 02:21:21;;;;;;;14.48;4.07;;;;;;;12.09;94.93;102509.78;5025881;28;20271;-54
2022/10/03 02:24:00;;;;;;;12.90;4.05;;;;;;;12.08;96.03;102510.88;5017085;28;20037;-56
2022/10/03 02:26:46;;;;;;;13.50;3.70;;;;;;;12.08;95.71;102513.59;5028054;28;20514;-55
2022/10/03 02:29:31;;;;;;;12.50;3.60;;;;;;;12.06;95.18;102515.72;5033154;28;20452;-55
2022/10/03 02:32:18;;;;;;;15.57;4.32;;;;;;;12.03;95.59;102514.31;5033986;28;20072;-50
2022/10/03 02:35:14;;;;;;;12.07;4.00;;;;;;;12.00;95.78;102512.06;5030328;28;20037;-57
2022/10/03 02:37:50;;;;;;;13.55;3.92;;;;;;;11.99;95.89;102515.00;5033104;28;20041;-50
2022/10/03 02:40:51;;;;;;;12.57;3.92;;;;;;;11.97;96.06;102519.88;5033629;28;20047;-53
2022/10/03 02:43:32;;;;;;;10.88;3.60;;;;;;;11.97;96.25;102514.41;5020510;28;20799;-55
2022/10/03 02:46:33;;;;;;;10.18;3.60;;;;;;;12.00;95.69;102511.19;5030659;28;20045;-55
2022/10/03 02:49:06;;;;;;;13.00;4.38;;;;;;;12.00;96.02;102511.19;5033342;28;20041;-55
2022/10/03 02:52:01;;;;;;;11.85;3.78;;;;;;;11.97;95.24;102517.16;5033789;28;20087;-55
2022/10/03 02:54:29;;;;;;;10.80;3.95;;;;;;;11.93;95.44;102512.16;5032059;28;20049;-53
2022/10/03 02:57:06;;;;;;;9.35;3.67;;;;;;;11.92;95.92;102515.13;5024333;28;20045;-52
2022/10/03 03:00:05;;;;;;;14.20;4.10;;;;;;;11.91;96.14;102514.28;5028694;28;20050;-55
2022/10/03 03:03:00;;;;;;;17.10;4.43;;;;;;;11.86;95.07;102516.88;5009218;28;20041;-53
2022/10/03 03:05:43;;;;;;;11.80;3.80;;;;;;;11.81;95.57;102508.56;5034279;28;20061;-54
2022/10/03 03:08:24;;;;;;;12.68;3.80;;;;;;;11.83;95.67;102511.84;5028472;28;20064;-54
2022/10/03 03:11:29;;;;;;;10.77;3.90;;;;;;;11.81;95.14;102508.56;5032361;28;20444;-54
2022/10/03 03:14:40;;;;;;;14.25;4.10;;;;;;;11.76;95.36;102513.88;5026868;28;20503;-59
2022/10/03 03:17:43;;;;;;;10.07;3.90;;;;;;;11.66;94.70;102510.88;5002726;28;20041;-53
2022/10/03 03:20:21;;;;;;;10.07;3.90;;;;;;;11.61;96.02;102516.22;5031818;28;20050;-54
2022/10/03 03:23:17;;;;;;;15.90;4.60;;;;;;;11.61;96.61;102514.31;5019551;28;20026;-54
2022/10/03 03:26:07;;;;;;;12.10;3.72;;;;;;;11.64;96.39;102521.19;5023601;28;20042;-56
2022/10/03 03:29:12;;;;;;;14.45;4.32;;;;;;;11.66;96.88;102525.34;5033071;28;20500;-54
2022/10/03 03:32:03;;;;;;;11.60;3.85;;;;;;;11.68;96.69;102531.41;5020223;28;20041;-51
2022/10/03 03:35:00;;;;;;;14.25;4.20;;;;;;;11.67;96.14;102535.22;5026653;28;20037;-56
2022/10/03 03:37:56;;;;;;;11.40;3.70;;;;;;;11.65;96.28;102533.78;5027963;28;20049;-54
2022/10/03 03:40:31;;;;;;;8.90;3.83;;;;;;;11.65;95.74;102536.53;5031619;28;20044;-51
2022/10/03 03:43:09;;;;;;;10.43;4.00;;;;;;;11.65;95.75;102533.78;5032848;28;20455;-54
2022/10/03 03:45:53;;;;;;;10.68;3.58;;;;;;;11.62;95.79;102531.53;5025426;28;20046;-53
2022/10/03 03:48:38;;;;;;;15.50;4.85;;;;;;;11.61;95.53;102524.41;5032715;28;20045;-52
2022/10/03 03:51:40;;;;;;;12.77;4.10;;;;;;;11.59;95.72;102526.53;5035518;28;20504;-54
2022/10/03 03:54:55;;;;;;;12.25;3.90;;;;;;;11.54;96.33;102529.94;5014182;28;20050;-51
2022/10/03 03:57:42;;;;;;;11.75;4.05;;;;;;;11.55;96.35;102530.81;5031452;28;20041;-51
2022/10/03 04:00:29;;;;;;;12.43;3.58;;;;;;;11.52;95.72;102527.47;5036357;28;20046;-53
2022/10/03 04:03:34;;;;;;;11.45;4.18;;;;;;;11.49;96.53;102527.91;5033975;28;20046;-54
2022/10/03 04:06:39;;;;;;;11.38;4.85;;;;;;;11.50;96.63;102529.59;5030036;28;20033;-57
2022/10/03 04:09:37;;;;;;;9.75;3.58;;;;;;;11.52;95.80;102527.47;5033564;28;20041;-54
2022/10/03 04:12:18;;;;;;;10.70;4.07;;;;;;;11.46;95.86;102531.13;5025889;28;20049;-53
2022/10/03 04:14:55;;;;;;;12.77;4.10;;;;;;;11.40;95.96;102526.59;5023473;28;20041;-55
2022/10/03 04:20:58;;;;;;;12.85;4.22;;;;;;;11.40;96.32;102534.78;5026592;28;20500;-54
2022/10/03 04:23:41;;;;;;;14.38;4.07;;;;;;;11.41;95.89;102536.44;5033885;28;20050;-57
2022/10/03 04:26:09;;;;;;;11.15;3.67;;;;;;;11.41;95.90;102533.72;5030058;28;20483;-54
2022/10/03 04:28:53;;;;;;;10.70;3.90;;;;;;;11.40;96.57;102534.78;5025136;28;20508;-54
2022/10/03 04:31:48;;;;;;;9.52;3.28;;;;;;;11.42;96.03;102535.38;5053683;28;20045;-53
2022/10/03 04:34:27;;;;;;;8.43;3.15;;;;;;;11.42;95.83;102540.00;5040799;28;20049;-51
2022/10/03 04:37:10;;;;;;;11.02;3.10;;;;;;;11.39;95.65;102537.75;5040902;28;20045;-53
2022/10/03 04:39:47;;;;;;;14.57;4.20;;;;;;;11.36;95.85;102538.22;5043252;28;20091;-52
2022/10/03 04:42:39;;;;;;;9.23;3.30;;;;;;;11.31;95.83;102541.63;5037523;28;20046;-54
2022/10/03 04:45:33;;;;;;;8.98;3.58;;;;;;;11.29;95.81;102554.66;5047528;28;20060;-51
2022/10/03 04:48:11;;;;;;;8.73;3.67;;;;;;;11.27;95.49;102549.44;5033113;28;20071;-53
2022/10/03 04:51:17;;;;;;;10.68;3.63;;;;;;;11.25;96.09;102550.72;5035271;28;20045;-51
2022/10/03 04:54:32;;;;;;;7.90;3.50;;;;;;;11.23;96.24;102550.97;5018436;28;20034;-53
2022/10/03 04:57:36;;;;;;;13.30;4.18;;;;;;;11.22;96.19;102545.72;5020030;28;20045;-53
2022/10/03 05:00:30;;;;;;;11.95;3.92;;;;;;;11.19;96.42;102543.47;5029875;28;20056;-52
2022/10/03 05:03:06;;;;;;;14.07;4.45;;;;;;;11.17;96.05;102546.41;5019106;28;20046;-51
2022/10/03 05:05:33;;;;;;;;;;;;;;;11.18;96.79;102563.63;5029617;28;20041;-53
2022/10/03 05:08:16;;;;;;;12.57;4.70;;;;;;;11.23;96.68;102561.03;5032378;28;19925;-53
2022/10/03 05:10:52;;;;;;;10.00;3.90;;;;;;;11.25;95.61;102558.91;5035268;28;20500;-53
2022/10/03 05:13:31;;;;;;;;;;;;;;;11.27;95.62;102556.78;5032224;28;20046;-51
2022/10/03 05:16:14;;;;;;;9.65;3.58;;;;;;;11.23;95.17;102558.31;5025940;28;19925;-53
2022/10/03 05:18:48;;;;;;;10.63;4.25;;;;;;;11.18;95.19;102558.16;5024923;28;20078;-55
2022/10/03 05:21:33;;;;;;;15.80;3.95;;;;;;;11.14;94.92;102559.69;5024365;28;20053;-54
2022/10/03 05:24:43;;;;;;;11.02;4.25;;;;;;;11.03;95.32;102555.81;5014036;28;20076;-53
2022/10/03 05:27:29;;;;;;;12.25;4.60;;;;;;;10.96;95.56;102561.34;5029772;28;20104;-51
2022/10/03 05:30:02;;;;;;;;;;;;;;;10.94;95.60;102562.66;5047858;28;20046;-53
2022/10/03 05:32:33;;;;;;;13.68;4.20;;;;;;;10.96;95.95;102565.97;5028833;28;19921;-52
2022/10/03 05:35:03;;;;;;;11.05;3.72;;;;;;;10.96;96.09;102561.34;5034539;28;20041;-52
2022/10/03 05:37:46;;;;;;;13.38;4.28;;;;;;;10.97;95.59;102571.22;5034074;28;20048;-53
2022/10/03 05:40:22;;;;;;;9.20;3.90;;;;;;;10.93;95.27;102577.34;5034666;28;20436;-52
2022/10/03 05:42:54;;;;;;;10.95;4.03;;;;;;;10.92;95.99;102576.53;5021160;28;20038;-51
2022/10/03 05:45:29;;;;;;;10.77;3.90;;;;;;;10.91;96.10;102579.47;5029953;28;20041;-52
2022/10/03 05:48:08;;;;;;;16.60;4.45;;;;;;;10.88;96.58;102580.75;5033361;28;20120;-56
2022/10/03 05:50:56;;;;;;;13.65;4.50;;;;;;;10.86;96.44;102580.16;5011514;28;20045;-52
2022/10/03 05:53:30;;;;;;;13.35;4.38;;;;;;;10.81;96.45;102582.72;5019888;28;20393;-54
2022/10/03 05:56:16;;;;;;;11.02;4.43;;;;;;;10.79;95.72;102588.41;5026480;28;20038;-52
2022/10/03 05:59:08;;;;;;;11.00;4.30;;;;;;;10.81;96.17;102591.72;5014236;28;20040;-52
2022/10/03 06:01:49;;;;;;;10.75;4.57;;;;;;;10.82;95.99;102598.00;5018241;28;20113;-54
2022/10/03 06:04:57;;;;;;;8.98;3.95;;;;;;;10.84;96.73;102596.72;5013886;28;20080;-54
2022/10/03 06:07:34;;;;;;;11.57;4.63;;;;;;;10.89;96.27;102596.06;5014907;28;20092;-52
2022/10/03 06:10:18;;;;;;;8.57;3.75;;;;;;;10.92;96.74;102600.22;5015825;28;20046;-53
2022/10/03 06:13:12;;;;;;;8.85;3.78;;;;;;;10.94;97.28;102607.09;5014941;28;20046;-53
2022/10/03 06:16:34;;;;;;;12.18;4.43;;;;;;;10.96;97.38;102604.16;5014213;28;20523;-52
2022/10/03 06:19:10;;;;;;;10.48;4.88;;;;;;;10.98;97.81;102596.59;5002869;28;20045;-52
2022/10/03 06:22:22;;;;;;;13.90;4.97;;;;;;;10.94;97.90;102593.47;5020316;28;20046;-55
2022/10/03 06:25:12;;;;;;;15.93;5.68;;;;;;;10.88;98.22;102602.56;5019683;28;20389;-51
2022/10/03 06:28:13;;;;;;;15.07;5.57;;;;;;;10.85;98.51;102603.03;5032762;28;20034;-53
2022/10/03 06:31:11;;;;;;;10.75;4.30;;;;;;;10.84;98.01;102598.63;5032355;28;20037;-50
2022/10/03 06:34:08;;;;;;;10.30;3.95;;;;;;;10.88;98.95;102605.31;5015399;28;20049;-54
2022/10/03 06:36:44;;;;;;;11.82;3.67;;;;;;;10.89;98.63;102609.69;5028788;28;20052;-52
2022/10/03 06:39:33;;;;;;;14.02;4.22;;;;;;;10.87;99.04;102606.34;5031229;28;20037;-53
2022/10/03 06:42:34;;;;;;;10.65;4.35;;;;;;;10.87;99.09;102606.34;5027566;28;20065;-53
2022/10/03 06:45:17;;;;;;;9.63;3.80;;;;;;;10.89;99.63;102612.41;5031022;28;20041;-51
2022/10/03 06:48:20;;;;;;;10.60;3.88;;;;;;;10.95;99.28;102616.97;5024424;28;20045;-52
2022/10/03 06:51:10;;;;;;;15.68;4.35;;;;;;;10.98;99.00;102621.16;5027785;28;20041;-51
2022/10/03 06:54:11;;;;;;;10.48;3.42;;;;;;;11.00;99.21;102610.84;5022729;28;20040;-54
2022/10/03 06:56:41;;;;;;;10.68;3.92;;;;;;;11.04;99.46;102621.06;5015341;28;20053;-55
2022/10/03 06:59:48;;;;;;;12.45;4.20;;;;;;;11.09;98.67;102618.50;5027532;28;20500;-51
2022/10/03 07:02:53;;;;;;;11.82;3.97;;;;;;;11.11;99.12;102612.78;5029634;28;20046;-52
2022/10/03 07:05:39;;;;;;;12.13;3.97;;;;;;;11.14;99.03;102617.00;5029090;28;20081;-51
2022/10/03 07:08:07;;;;;;;9.60;3.40;;;;;;;11.16;99.17;102620.31;5031706;28;20043;-51
2022/10/03 07:11:08;;;;;;;12.63;3.80;;;;;;;11.16;99.81;102615.69;5030817;28;20492;-51
2022/10/03 07:13:59;;;;;;;13.35;4.13;;;;;;;11.19;99.76;102625.31;5030285;28;20042;-51
2022/10/03 07:16:48;;;;;;;10.65;3.90;;;;;;;11.20;99.78;102630.53;5006854;28;20046;-51
2022/10/03 07:19:22;;;;;;;13.32;4.03;;;;;;;11.21;99.71;102625.94;5030727;28;20098;-51
2022/10/03 07:22:09;;;;;;;9.95;3.83;;;;;;;11.21;99.91;102629.50;5025121;28;20500;-50
2022/10/03 07:24:45;;;;;;;;;;;;;;;11.24;100.00;102639.13;5026435;28;20042;-49
2022/10/03 07:27:44;;;;;;;10.10;3.38;;;;;;;11.27;100.00;102630.47;5030909;28;19921;-53
2022/10/03 07:30:20;;;;;;;9.73;3.28;;;;;;;11.29;100.00;102622.88;5025053;28;20054;-50
2022/10/03 07:33:25;;;;;;;13.32;3.92;;;;;;;11.33;100.00;102629.56;5034669;28;20048;-49
2022/10/03 07:39:32;;;;;;;11.70;4.30;;;;;;;11.36;100.00;102634.56;5029781;28;20060;-51
2022/10/03 07:42:08;;;;;;;8.82;3.88;;;;;;;11.40;100.00;102635.78;5027590;28;20048;-50
2022/10/03 07:45:22;;;;;;;13.90;4.10;;;;;;;11.46;100.00;102645.75;5017842;28;20518;-52
2022/10/03 07:48:12;;;;;;;12.63;3.90;;;;;;;11.50;100.00;102648.88;5034418;28;20045;-50
2022/10/03 07:51:07;;;;;;;16.17;4.57;;;;;;;11.47;100.00;102644.72;5033738;28;20042;-50
2022/10/03 07:53:59;;;;;;;18.20;4.50;;;;;;;11.51;100.00;102648.63;5032002;28;20091;-50
2022/10/03 07:57:02;;;;;;;14.57;4.32;;;;;;;11.52;100.00;102653.03;5035140;28;20123;-49
2022/10/03 07:59:58;;;;;;;14.98;4.72;;;;;;;11.55;100.00;102662.66;5036019;28;20503;-51
2022/10/03 08:03:03;;;;;;;14.40;4.03;;;;;;;11.60;100.00;102673.72;5032543;28;20046;-50
2022/10/03 08:06:28;;;;;;;13.60;4.10;;;;;;;11.66;100.00;102669.25;5034506;28;20046;-51
2022/10/03 08:09:14;;;;;;;11.90;4.32;;;;;;;11.73;100.00;102664.53;5033960;28;20041;-50
2022/10/03 08:12:19;;;;;;;9.90;3.67;;;;;;;11.78;100.00;102661.94;5035124;28;20049;-50
2022/10/03 08:15:23;;;;;;;13.77;3.78;;;;;;;11.84;100.00;102666.47;5036087;28;20037;-52
2022/10/03 08:17:58;;;;;;;14.90;4.55;;;;;;;11.89;100.00;102663.09;5036112;28;20045;-52
2022/10/03 08:20:31;;;;;;;12.25;4.13;;;;;;;11.90;100.00;102662.84;5031618;28;20099;-50
2022/10/03 08:23:31;;;;;;;10.25;3.70;;;;;;;11.93;100.00;102659.66;5027112;28;20037;-50
2022/10/03 08:26:21;;;;;;;11.18;3.70;;;;;;;11.97;100.00;102653.72;5034821;28;20488;-52
2022/10/03 08:29:10;;;;;;;11.40;3.55;;;;;;;11.98;100.00;102656.25;5035629;28;20125;-53
2022/10/03 08:31:59;;;;;;;14.32;4.05;;;;;;;12.01;100.00;102657.69;5027549;28;20041;-51
2022/10/03 08:35:08;;;;;;;13.45;4.05;;;;;;;12.04;100.00;102659.94;5033895;28;20068;-53
2022/10/03 08:37:56;;;;;;;13.63;3.67;;;;;;;12.08;100.00;102663.88;5035124;28;20128;-50
2022/10/03 08:40:55;;;;;;;11.90;3.97;;;;;;;12.10;100.00;102659.03;5034117;28;20046;-52
2022/10/03 08:43:57;;;;;;;9.13;3.08;;;;;;;12.13;100.00;102667.56;5040869;28;20041;-51
2022/10/03 08:46:49;;;;;;;10.25;3.58;;;;;;;12.16;100.00;102669.00;5046365;28;20052;-52
2022/10/03 08:49:50;;;;;;;13.07;3.20;;;;;;;12.19;100.00;102663.06;5028240;28;20064;-50
2022/10/03 08:52:44;;;;;;;12.73;3.30;;;;;;;12.23;100.00;102669.72;5015884;28;20037;-49
2022/10/03 08:55:33;;;;;;;10.80;4.00;;;;;;;12.27;100.00;102665.47;5033220;28;20045;-51
2022/10/03 08:58:23;;;;;;;12.18;3.80;;;;;;;12.30;100.00;102667.72;5037259;28;20044;-50
2022/10/03 09:01:22;;;;;;;12.77;3.63;;;;;;;12.35;100.00;102667.84;5022177;28;20041;-50
2022/10/03 09:04:04;;;;;;;11.85;3.78;;;;;;;12.39;100.00;102672.84;5025003;28;20506;-51
2022/10/03 09:06:59;;;;;;;11.23;3.60;;;;;;;12.44;100.00;102671.09;5021232;28;20064;-47
2022/10/03 09:10:22;;;;;;;11.63;3.80;;;;;;;12.47;100.00;102672.53;5039249;28;20044;-48
2022/10/03 09:12:55;;;;;;;10.15;3.70;;;;;;;12.53;100.00;102674.28;5028984;28;20049;-54
2022/10/03 09:15:46;;;;;;;10.05;3.13;;;;;;;12.57;100.00;102672.75;5035005;28;20052;-51
2022/10/03 09:18:40;;;;;;;11.52;3.65;;;;;;;12.62;100.00;102667.41;5007466;28;20050;-50
2022/10/03 09:21:45;;;;;;;10.48;3.60;;;;;;;12.66;100.00;102676.00;5030713;28;20042;-50
2022/10/03 09:24:42;;;;;;;11.60;3.70;;;;;;;12.71;100.00;102670.66;5021444;28;20659;-52
2022/10/03 09:27:18;;;;;;;10.77;4.28;;;;;;;12.76;100.00;102666.13;5034295;28;20052;-50
2022/10/03 09:30:21;;;;;;;15.20;4.10;;;;;;;12.81;100.00;102653.66;5033100;28;20057;-49
2022/10/03 09:33:22;;;;;;;13.85;4.88;;;;;;;12.88;100.00;102657.09;5038777;28;20038;-48
2022/10/03 09:36:18;;;;;;;15.02;4.20;;;;;;;12.93;100.00;102654.47;5019533;28;20399;-47
2022/10/03 09:39:07;;;;;;;9.82;3.50;;;;;;;12.98;100.00;102655.41;5033720;28;20115;-48
2022/10/03 09:42:04;;;;;;;11.98;3.80;;;;;;;13.00;100.00;102661.47;5031485;28;20045;-50
2022/10/03 09:44:32;;;;;;;16.25;4.38;;;;;;;13.02;100.00;102661.25;5032376;28;20057;-51
2022/10/03 09:47:27;;;;;;;17.70;4.00;;;;;;;13.04;100.00;102653.63;5048850;28;20053;-50
2022/10/03 09:50:22;;;;;;;14.52;3.60;;;;;;;13.11;100.00;102651.59;5027867;28;20034;-50
2022/10/03 09:53:28;;;;;;;12.35;3.70;;;;;;;13.14;100.00;102647.56;5023490;28;20484;-47
2022/10/03 09:56:11;;;;;;;15.05;3.28;;;;;;;13.15;100.00;102644.56;5034431;28;20037;-50
2022/10/03 09:58:57;;;;;;;14.85;3.40;;;;;;;13.17;100.00;102644.31;5034362;28;20045;-49
2022/10/03 10:01:43;;;;;;;13.00;3.28;;;;;;;13.19;100.00;102639.44;5025272;28;20041;-52
2022/10/03 10:04:11;;;;;;;;;;;;;;;13.21;100.00;102642.78;5020469;28;20095;-49
2022/10/03 10:07:21;;;;;;;15.88;3.65;;;;;;;13.25;100.00;102632.16;5070874;28;20395;-50
2022/10/03 10:10:07;;;;;;;13.48;3.50;;;;;;;13.25;100.00;102637.66;5039252;28;20045;-52
2022/10/03 10:12:38;;;;;;;14.98;3.88;;;;;;;13.26;100.00;102633.84;5049561;28;20053;-50
2022/10/03 10:15:39;;;;;;;11.43;3.05;;;;;;;13.30;100.00;102638.63;5082764;28;20515;-52
2022/10/03 10:18:53;;;;;;;12.20;3.13;;;;;;;13.38;99.35;102629.22;5048418;28;20087;-52
2022/10/03 10:21:53;;;;;;;13.30;3.42;;;;;;;13.44;98.82;102628.22;5064758;28;20048;-51
2022/10/03 10:24:45;;;;;;;11.50;3.65;;;;;;;13.51;100.00;102626.16;5043288;28;20042;-52
2022/10/03 10:27:19;;;;;;;14.00;4.20;;;;;;;13.64;100.00;102630.56;5044947;28;20116;-54
2022/10/03 10:30:25;;;;;;;12.88;3.65;;;;;;;13.71;99.58;102633.13;5050218;28;20076;-51
2022/10/03 10:33:35;;;;;;;12.55;3.17;;;;;;;13.68;97.75;102636.34;4354376;28;10000734;-50
2022/10/03 10:36:25;;;;;;;11.68;3.55;;;;;;;13.70;98.63;102623.25;5045295;28;20048;-53
2022/10/03 10:39:33;;;;;;;10.75;3.90;;;;;;;13.71;97.64;102613.94;5047028;28;20603;-49
2022/10/03 10:42:04;;;;;;;11.45;3.28;;;;;;;13.74;97.98;102624.44;5040345;28;20512;-50
2022/10/03 10:45:02;;;;;;;14.50;4.18;;;;;;;13.83;100.00;102625.72;5044999;28;20106;-50
2022/10/03 10:47:35;;;;;;;11.70;3.80;;;;;;;13.84;99.48;102630.09;5045427;28;20064;-51
2022/10/03 10:50:20;;;;;;;14.70;3.80;;;;;;;13.85;97.47;102627.13;5046683;28;20527;-49
2022/10/03 10:53:26;;;;;;;12.38;3.35;;;;;;;13.94;98.18;102618.50;5052315;28;20167;-52
2022/10/03 10:56:13;;;;;;;;;;;;;;;13.93;96.10;102620.41;5047002;28;20455;-49
2022/10/03 10:58:47;;;;;;;10.38;3.05;;;;;;;13.94;93.19;102627.53;5046530;28;19929;-52
2022/10/03 11:01:17;;;;;;;9.07;2.50;;;;;;;13.96;91.99;102630.03;5044558;28;20037;-52
2022/10/03 11:04:03;;;;;;;10.75;3.15;;;;;;;13.96;92.05;102625.38;5050376;28;20499;-50
2022/10/03 11:06:58;;;;;;;11.38;2.92;;;;;;;13.98;90.72;102623.22;5031597;28;20065;-52
2022/10/03 11:10:03;;;;;;;11.10;2.83;;;;;;;14.01;90.48;102622.72;5046474;28;20036;-50
2022/10/03 11:12:39;;;;;;;11.75;3.28;;;;;;;14.04;90.25;102624.16;5046314;28;20045;-50
2022/10/03 11:15:29;;;;;;;12.00;2.90;;;;;;;14.09;91.17;102623.41;5041738;28;20037;-52
2022/10/03 11:18:24;;;;;;;10.02;3.00;;;;;;;14.12;90.92;102621.03;5030450;28;20056;-49
2022/10/03 11:21:19;;;;;;;11.90;2.95;;;;;;;14.14;91.95;102620.75;5032792;28;20519;-50
2022/10/03 11:24:33;;;;;;;10.55;2.95;;;;;;;14.15;92.92;102619.69;5033945;28;20455;-49
2022/10/03 11:27:35;;;;;;;12.30;3.28;;;;;;;14.19;92.63;102618.09;5050583;28;20050;-49
2022/10/03 11:30:26;;;;;;;11.50;3.00;;;;;;;14.21;92.05;102614.03;5034214;28;20495;-49
2022/10/03 11:33:03;;;;;;;9.25;2.70;;;;;;;14.24;91.79;102618.19;5022387;28;20557;-53
2022/10/03 11:35:49;;;;;;;9.38;2.80;;;;;;;14.25;89.40;102614.38;5036869;28;20049;-50
2022/10/03 11:38:33;;;;;;;14.25;3.65;;;;;;;14.26;88.96;102616.03;5035928;28;20047;-49
2022/10/03 11:41:21;;;;;;;8.65;2.60;;;;;;;14.28;89.59;102616.59;5034286;28;20064;-49
2022/10/03 11:44:14;;;;;;;14.82;3.10;;;;;;;14.30;90.01;102611.72;5035388;28;20447;-50
2022/10/03 11:47:07;;;;;;;10.80;3.05;;;;;;;14.31;90.21;102607.91;5025112;28;20041;-51
2022/10/03 11:49:38;;;;;;;11.63;3.03;;;;;;;14.34;89.76;102612.06;5035383;28;20166;-50
2022/10/03 11:52:32;;;;;;;9.88;2.92;;;;;;;14.37;89.68;102615.13;5035466;28;20392;-54
2022/10/03 11:55:15;;;;;;;9.55;3.03;;;;;;;14.42;90.10;102609.72;5033965;28;20045;-52
2022/10/03 11:57:49;;;;;;;9.65;2.80;;;;;;;14.46;89.52;102610.06;5021017;28;20125;-53
2022/10/03 12:00:19;;;;;;;10.38;2.70;;;;;;;14.48;88.33;102616.13;5026715;28;20116;-51
2022/10/03 12:03:02;;;;;;;11.73;3.20;;;;;;;14.49;87.51;102618.59;5014593;28;20442;-51
2022/10/03 12:05:48;;;;;;;10.43;3.10;;;;;;;14.53;86.98;102616.19;5017772;28;20076;-51
2022/10/03 12:11:18;;;;;;;10.43;2.67;;;;;;;14.57;86.28;102609.13;5026320;28;20053;-51
2022/10/03 12:14:08;;;;;;;9.55;2.80;;;;;;;14.58;85.96;102613.56;5014952;28;20046;-52
2022/10/03 12:16:47;;;;;;;8.68;2.60;;;;;;;14.59;85.52;102606.16;5033279;28;20124;-54
2022/10/03 12:19:29;;;;;;;9.63;2.63;;;;;;;14.60;85.20;102599.56;5024913;28;20045;-52
2022/10/03 12:22:18;;;;;;;8.07;3.10;;;;;;;14.59;85.73;102597.94;5016286;28;20050;-50
2022/10/03 12:24:47;;;;;;;9.48;2.90;;;;;;;14.60;86.72;102605.06;5007488;28;20049;-51
2022/10/03 12:27:46;;;;;;;6.82;2.35;;;;;;;14.63;87.68;102599.09;5015335;28;20088;-54
2022/10/03 12:30:17;;;;;;;9.80;3.10;;;;;;;14.68;87.31;102596.41;5014882;28;20088;-53
2022/10/03 12:33:00;;;;;;;6.75;2.50;;;;;;;14.73;87.50;102593.75;5034767;28;20049;-52
2022/10/03 12:35:50;;;;;;;13.88;3.05;;;;;;;14.78;87.19;102593.81;5034705;28;20107;-52
2022/10/03 12:38:37;;;;;;;13.25;2.53;;;;;;;14.86;87.18;102593.41;5032955;28;20049;-54
2022/10/03 12:41:24;;;;;;;10.40;3.00;;;;;;;14.93;85.83;102592.38;5030317;28;20088;-53
2022/10/03 12:44:15;;;;;;;10.25;3.03;;;;;;;14.97;85.72;102588.03;5035212;28;20043;-52
2022/10/03 12:47:20;;;;;;;8.40;2.50;;;;;;;15.00;85.35;102585.59;5033298;28;20042;-51
2022/10/03 12:50:38;;;;;;;12.23;2.90;;;;;;;15.04;83.79;102584.00;5026611;28;20467;-52
2022/10/03 12:53:15;;;;;;;9.65;3.10;;;;;;;15.07;84.02;102588.16;5034151;28;20104;-50
2022/10/03 12:56:18;;;;;;;8.88;3.00;;;;;;;15.08;84.92;102584.31;5043663;28;20052;-51
2022/10/03 12:58:50;;;;;;;10.68;3.10;;;;;;;15.10;84.93;102582.16;5033826;28;20045;-52
2022/10/03 13:02:19;;;;;;;11.30;3.42;;;;;;;15.08;85.38;102579.69;5030034;28;20037;-51
2022/10/03 13:05:20;;;;;;;10.68;3.03;;;;;;;15.10;85.67;102585.75;5009293;28;20091;-56
2022/10/03 13:07:56;;;;;;;11.68;2.90;;;;;;;15.09;84.25;102588.75;5044854;28;20045;-54
2022/10/03 13:10:24;;;;;;;;;;;;;;;15.08;84.19;102578.81;5036504;28;20045;-49
2022/10/03 13:13:24;;;;;;;9.32;2.70;;;;;;;15.09;83.58;102564.84;5038640;28;20434;-51